sensor_id;sensor_type;location;lat;lon;timestamp;P1;durP1;ratioP1;P2;durP2;ratioP2
8895;SDS011;4484;48.928;10.066;2023-07-29T00:01:37;2.00;;;1.80;;
8895;SDS011;4484;48.928;10.066;2023-07-29T00:04:07;2.10;;;1.90;;
8895;SDS011;4484;48.928;10.066;2023-07-29T00:06:35;2.30;;;1.90;;
8895;SDS011;4484;48.928;10.066;2023-07-29T00:09:03;3.17;;;1.87;;
8895;SDS011;4484;48.928;10.066;2023-07-29T00:11:30;3.00;;;2.30;;
8895;SDS011;4484;48.928;10.066;2023-07-29T00:14:00;3.07;;;1.90;;
8895;SDS011;4484;48.928;10.066;2023-07-29T00:16:28;2.20;;;1.60;;
8895;SDS011;4484;48.928;10.066;2023-07-29T00:18:55;2.70;;;1.57;;
8895;SDS011;4484;48.928;10.066;2023-07-29T00:21:22;1.60;;;1.30;;
8895;SDS011;4484;48.928;10.066;2023-07-29T00:23:48;2.00;;;1.50;;
8895;SDS011;4484;48.928;10.066;2023-07-29T00:26:15;1.63;;;1.53;;
8895;SDS011;4484;48.928;10.066;2023-07-29T00:28:42;1.20;;;1.10;;
8895;SDS011;4484;48.928;10.066;2023-07-29T00:31:09;1.80;;;1.57;;
8895;SDS011;4484;48.928;10.066;2023-07-29T00:33:37;1.40;;;1.30;;
8895;SDS011;4484;48.928;10.066;2023-07-29T00:36:04;1.30;;;1.10;;
8895;SDS011;4484;48.928;10.066;2023-07-29T00:38:31;2.60;;;1.30;;
8895;SDS011;4484;48.928;10.066;2023-07-29T00:40:58;1.30;;;1.20;;
8895;SDS011;4484;48.928;10.066;2023-07-29T00:43:28;0.80;;;0.80;;
8895;SDS011;4484;48.928;10.066;2023-07-29T00:45:55;1.37;;;1.13;;
8895;SDS011;4484;48.928;10.066;2023-07-29T00:48:24;2.63;;;1.10;;
8895;SDS011;4484;48.928;10.066;2023-07-29T00:50:52;0.97;;;0.87;;
8895;SDS011;4484;48.928;10.066;2023-07-29T00:53:19;1.13;;;1.03;;
8895;SDS011;4484;48.928;10.066;2023-07-29T00:55:49;1.03;;;0.93;;
8895;SDS011;4484;48.928;10.066;2023-07-29T00:58:16;1.30;;;1.20;;
8895;SDS011;4484;48.928;10.066;2023-07-29T01:00:43;3.37;;;1.40;;
8895;SDS011;4484;48.928;10.066;2023-07-29T01:03:10;1.77;;;1.17;;
8895;SDS011;4484;48.928;10.066;2023-07-29T01:05:46;1.00;;;0.90;;
8895;SDS011;4484;48.928;10.066;2023-07-29T01:08:28;2.33;;;1.20;;
8895;SDS011;4484;48.928;10.066;2023-07-29T01:11:13;1.67;;;1.00;;
8895;SDS011;4484;48.928;10.066;2023-07-29T01:14:03;0.87;;;0.87;;
8895;SDS011;4484;48.928;10.066;2023-07-29T01:16:45;1.17;;;0.80;;
8895;SDS011;4484;48.928;10.066;2023-07-29T01:19:32;1.00;;;0.90;;
8895;SDS011;4484;48.928;10.066;2023-07-29T01:22:06;1.80;;;0.80;;
8895;SDS011;4484;48.928;10.066;2023-07-29T01:24:35;1.10;;;0.90;;
8895;SDS011;4484;48.928;10.066;2023-07-29T01:27:02;1.00;;;0.90;;
8895;SDS011;4484;48.928;10.066;2023-07-29T01:29:31;0.80;;;0.80;;
8895;SDS011;4484;48.928;10.066;2023-07-29T01:32:01;1.20;;;1.00;;
8895;SDS011;4484;48.928;10.066;2023-07-29T01:34:41;0.77;;;0.77;;
8895;SDS011;4484;48.928;10.066;2023-07-29T01:37:26;1.00;;;1.00;;
8895;SDS011;4484;48.928;10.066;2023-07-29T01:39:59;1.47;;;0.97;;
8895;SDS011;4484;48.928;10.066;2023-07-29T01:42:28;0.90;;;0.90;;
8895;SDS011;4484;48.928;10.066;2023-07-29T01:44:56;1.07;;;0.80;;
8895;SDS011;4484;48.928;10.066;2023-07-29T01:47:24;0.80;;;0.80;;
8895;SDS011;4484;48.928;10.066;2023-07-29T01:49:53;0.87;;;0.87;;
8895;SDS011;4484;48.928;10.066;2023-07-29T01:52:20;0.83;;;0.80;;
8895;SDS011;4484;48.928;10.066;2023-07-29T01:54:48;1.63;;;1.00;;
8895;SDS011;4484;48.928;10.066;2023-07-29T01:57:14;0.80;;;0.80;;
8895;SDS011;4484;48.928;10.066;2023-07-29T01:59:41;0.97;;;0.87;;
8895;SDS011;4484;48.928;10.066;2023-07-29T02:02:08;0.50;;;0.50;;
8895;SDS011;4484;48.928;10.066;2023-07-29T02:04:36;0.80;;;0.70;;
8895;SDS011;4484;48.928;10.066;2023-07-29T02:07:03;0.80;;;0.80;;
8895;SDS011;4484;48.928;10.066;2023-07-29T02:09:30;0.77;;;0.77;;
8895;SDS011;4484;48.928;10.066;2023-07-29T02:11:58;2.43;;;0.90;;
8895;SDS011;4484;48.928;10.066;2023-07-29T02:14:25;0.70;;;0.70;;
8895;SDS011;4484;48.928;10.066;2023-07-29T02:16:52;0.90;;;0.90;;
8895;SDS011;4484;48.928;10.066;2023-07-29T02:19:19;0.80;;;0.80;;
8895;SDS011;4484;48.928;10.066;2023-07-29T02:21:46;0.80;;;0.80;;
8895;SDS011;4484;48.928;10.066;2023-07-29T02:24:13;1.43;;;0.93;;
8895;SDS011;4484;48.928;10.066;2023-07-29T02:26:40;1.30;;;0.90;;
8895;SDS011;4484;48.928;10.066;2023-07-29T02:29:08;2.20;;;0.97;;
8895;SDS011;4484;48.928;10.066;2023-07-29T02:31:35;0.97;;;0.90;;
8895;SDS011;4484;48.928;10.066;2023-07-29T02:34:04;0.97;;;0.77;;
8895;SDS011;4484;48.928;10.066;2023-07-29T02:36:31;2.20;;;0.87;;
8895;SDS011;4484;48.928;10.066;2023-07-29T02:38:58;1.23;;;0.90;;
8895;SDS011;4484;48.928;10.066;2023-07-29T02:41:25;3.97;;;0.97;;
8895;SDS011;4484;48.928;10.066;2023-07-29T02:43:52;1.50;;;0.87;;
8895;SDS011;4484;48.928;10.066;2023-07-29T02:46:19;0.80;;;0.70;;
8895;SDS011;4484;48.928;10.066;2023-07-29T02:48:46;0.60;;;0.60;;
8895;SDS011;4484;48.928;10.066;2023-07-29T02:51:13;0.87;;;0.87;;
8895;SDS011;4484;48.928;10.066;2023-07-29T02:53:40;1.40;;;1.00;;
8895;SDS011;4484;48.928;10.066;2023-07-29T02:56:07;0.87;;;0.67;;
8895;SDS011;4484;48.928;10.066;2023-07-29T02:58:36;0.90;;;0.80;;
8895;SDS011;4484;48.928;10.066;2023-07-29T03:01:04;2.30;;;0.70;;
8895;SDS011;4484;48.928;10.066;2023-07-29T03:03:32;1.00;;;0.80;;
8895;SDS011;4484;48.928;10.066;2023-07-29T03:08:30;1.23;;;0.73;;
8895;SDS011;4484;48.928;10.066;2023-07-29T03:10:57;1.13;;;0.77;;
8895;SDS011;4484;48.928;10.066;2023-07-29T03:13:25;0.80;;;0.80;;
8895;SDS011;4484;48.928;10.066;2023-07-29T03:15:52;0.80;;;0.80;;
8895;SDS011;4484;48.928;10.066;2023-07-29T03:18:19;0.80;;;0.70;;
8895;SDS011;4484;48.928;10.066;2023-07-29T03:20:46;1.03;;;0.90;;
8895;SDS011;4484;48.928;10.066;2023-07-29T03:23:15;0.97;;;0.90;;
8895;SDS011;4484;48.928;10.066;2023-07-29T03:25:42;1.00;;;0.70;;
8895;SDS011;4484;48.928;10.066;2023-07-29T03:28:09;1.30;;;1.20;;
8895;SDS011;4484;48.928;10.066;2023-07-29T03:30:36;2.13;;;0.87;;
8895;SDS011;4484;48.928;10.066;2023-07-29T03:33:03;0.83;;;0.70;;
8895;SDS011;4484;48.928;10.066;2023-07-29T03:35:31;2.43;;;0.80;;
8895;SDS011;4484;48.928;10.066;2023-07-29T03:37:58;1.87;;;0.90;;
8895;SDS011;4484;48.928;10.066;2023-07-29T03:40:25;1.60;;;0.90;;
8895;SDS011;4484;48.928;10.066;2023-07-29T03:42:52;0.63;;;0.63;;
8895;SDS011;4484;48.928;10.066;2023-07-29T03:45:19;0.60;;;0.60;;
8895;SDS011;4484;48.928;10.066;2023-07-29T03:47:46;0.73;;;0.67;;
8895;SDS011;4484;48.928;10.066;2023-07-29T03:50:13;0.60;;;0.60;;
8895;SDS011;4484;48.928;10.066;2023-07-29T03:52:40;1.00;;;0.90;;
8895;SDS011;4484;48.928;10.066;2023-07-29T03:55:07;0.83;;;0.80;;
8895;SDS011;4484;48.928;10.066;2023-07-29T03:57:34;1.37;;;1.00;;
8895;SDS011;4484;48.928;10.066;2023-07-29T04:00:01;4.10;;;1.20;;
8895;SDS011;4484;48.928;10.066;2023-07-29T04:02:29;2.17;;;0.90;;
8895;SDS011;4484;48.928;10.066;2023-07-29T04:04:56;0.80;;;0.80;;
8895;SDS011;4484;48.928;10.066;2023-07-29T04:07:23;1.63;;;1.13;;
8895;SDS011;4484;48.928;10.066;2023-07-29T04:09:50;1.23;;;1.10;;
8895;SDS011;4484;48.928;10.066;2023-07-29T04:12:17;1.23;;;0.90;;
8895;SDS011;4484;48.928;10.066;2023-07-29T04:14:47;0.97;;;0.90;;
8895;SDS011;4484;48.928;10.066;2023-07-29T04:17:15;4.20;;;1.00;;
8895;SDS011;4484;48.928;10.066;2023-07-29T04:19:42;2.40;;;1.10;;
8895;SDS011;4484;48.928;10.066;2023-07-29T04:22:08;1.70;;;1.37;;
8895;SDS011;4484;48.928;10.066;2023-07-29T04:24:36;1.57;;;1.03;;
8895;SDS011;4484;48.928;10.066;2023-07-29T04:27:03;1.10;;;1.00;;
8895;SDS011;4484;48.928;10.066;2023-07-29T04:29:31;1.80;;;1.00;;
8895;SDS011;4484;48.928;10.066;2023-07-29T04:31:58;2.20;;;1.00;;
8895;SDS011;4484;48.928;10.066;2023-07-29T04:34:25;1.40;;;1.30;;
8895;SDS011;4484;48.928;10.066;2023-07-29T04:36:52;1.10;;;1.00;;
8895;SDS011;4484;48.928;10.066;2023-07-29T04:39:19;1.10;;;0.90;;
8895;SDS011;4484;48.928;10.066;2023-07-29T04:41:46;1.10;;;0.93;;
8895;SDS011;4484;48.928;10.066;2023-07-29T04:44:14;0.93;;;0.93;;
8895;SDS011;4484;48.928;10.066;2023-07-29T04:46:41;1.10;;;1.00;;
8895;SDS011;4484;48.928;10.066;2023-07-29T04:49:08;1.40;;;1.20;;
8895;SDS011;4484;48.928;10.066;2023-07-29T04:51:35;0.80;;;0.80;;
8895;SDS011;4484;48.928;10.066;2023-07-29T04:54:03;1.80;;;1.30;;
8895;SDS011;4484;48.928;10.066;2023-07-29T04:56:30;1.30;;;1.10;;
8895;SDS011;4484;48.928;10.066;2023-07-29T04:58:57;2.33;;;1.03;;
8895;SDS011;4484;48.928;10.066;2023-07-29T05:01:24;1.63;;;1.03;;
8895;SDS011;4484;48.928;10.066;2023-07-29T05:03:51;1.20;;;1.10;;
8895;SDS011;4484;48.928;10.066;2023-07-29T05:06:18;1.30;;;1.20;;
8895;SDS011;4484;48.928;10.066;2023-07-29T05:08:45;1.33;;;1.20;;
8895;SDS011;4484;48.928;10.066;2023-07-29T05:11:13;1.17;;;1.07;;
8895;SDS011;4484;48.928;10.066;2023-07-29T05:13:39;1.50;;;1.20;;
8895;SDS011;4484;48.928;10.066;2023-07-29T05:16:07;1.30;;;1.03;;
8895;SDS011;4484;48.928;10.066;2023-07-29T05:18:34;0.83;;;0.83;;
8895;SDS011;4484;48.928;10.066;2023-07-29T05:21:01;1.23;;;1.00;;
8895;SDS011;4484;48.928;10.066;2023-07-29T05:23:28;3.03;;;1.10;;
8895;SDS011;4484;48.928;10.066;2023-07-29T05:25:55;4.50;;;2.27;;
8895;SDS011;4484;48.928;10.066;2023-07-29T05:28:22;3.53;;;2.10;;
8895;SDS011;4484;48.928;10.066;2023-07-29T05:30:49;3.03;;;1.90;;
8895;SDS011;4484;48.928;10.066;2023-07-29T05:33:16;3.20;;;1.70;;
8895;SDS011;4484;48.928;10.066;2023-07-29T05:35:43;2.00;;;1.20;;
8895;SDS011;4484;48.928;10.066;2023-07-29T05:38:10;2.43;;;1.20;;
8895;SDS011;4484;48.928;10.066;2023-07-29T05:40:37;1.20;;;1.10;;
8895;SDS011;4484;48.928;10.066;2023-07-29T05:43:04;0.90;;;0.80;;
8895;SDS011;4484;48.928;10.066;2023-07-29T05:45:31;1.47;;;1.20;;
8895;SDS011;4484;48.928;10.066;2023-07-29T05:47:58;2.17;;;1.33;;
8895;SDS011;4484;48.928;10.066;2023-07-29T05:50:25;2.67;;;1.00;;
8895;SDS011;4484;48.928;10.066;2023-07-29T05:52:52;2.47;;;1.00;;
8895;SDS011;4484;48.928;10.066;2023-07-29T05:55:20;1.53;;;1.40;;
8895;SDS011;4484;48.928;10.066;2023-07-29T05:57:47;1.87;;;1.00;;
8895;SDS011;4484;48.928;10.066;2023-07-29T06:00:13;1.87;;;1.20;;
8895;SDS011;4484;48.928;10.066;2023-07-29T06:02:41;6.03;;;1.50;;
8895;SDS011;4484;48.928;10.066;2023-07-29T06:05:12;2.10;;;1.40;;
8895;SDS011;4484;48.928;10.066;2023-07-29T06:07:40;7.33;;;2.03;;
8895;SDS011;4484;48.928;10.066;2023-07-29T06:10:12;5.33;;;1.83;;
8895;SDS011;4484;48.928;10.066;2023-07-29T06:12:40;5.27;;;2.17;;
8895;SDS011;4484;48.928;10.066;2023-07-29T06:15:07;5.27;;;2.40;;
8895;SDS011;4484;48.928;10.066;2023-07-29T06:17:35;5.80;;;2.90;;
8895;SDS011;4484;48.928;10.066;2023-07-29T06:20:02;4.73;;;1.70;;
8895;SDS011;4484;48.928;10.066;2023-07-29T06:22:29;1.50;;;1.40;;
8895;SDS011;4484;48.928;10.066;2023-07-29T06:24:56;2.70;;;1.10;;
8895;SDS011;4484;48.928;10.066;2023-07-29T06:27:23;4.13;;;1.23;;
8895;SDS011;4484;48.928;10.066;2023-07-29T06:29:51;2.43;;;1.40;;
8895;SDS011;4484;48.928;10.066;2023-07-29T06:32:18;4.03;;;1.30;;
8895;SDS011;4484;48.928;10.066;2023-07-29T06:39:16;3.57;;;1.30;;
8895;SDS011;4484;48.928;10.066;2023-07-29T06:41:42;3.10;;;1.40;;
8895;SDS011;4484;48.928;10.066;2023-07-29T06:44:12;3.27;;;1.80;;
8895;SDS011;4484;48.928;10.066;2023-07-29T06:46:39;4.77;;;1.67;;
8895;SDS011;4484;48.928;10.066;2023-07-29T06:49:06;1.40;;;1.30;;
8895;SDS011;4484;48.928;10.066;2023-07-29T06:51:33;3.13;;;1.50;;
8895;SDS011;4484;48.928;10.066;2023-07-29T06:54:01;4.47;;;2.00;;
8895;SDS011;4484;48.928;10.066;2023-07-29T06:56:29;1.87;;;1.70;;
8895;SDS011;4484;48.928;10.066;2023-07-29T06:58:56;2.70;;;1.70;;
8895;SDS011;4484;48.928;10.066;2023-07-29T07:01:23;3.03;;;1.30;;
8895;SDS011;4484;48.928;10.066;2023-07-29T07:03:49;3.17;;;1.30;;
8895;SDS011;4484;48.928;10.066;2023-07-29T07:06:16;2.30;;;1.33;;
8895;SDS011;4484;48.928;10.066;2023-07-29T07:08:43;1.83;;;1.40;;
8895;SDS011;4484;48.928;10.066;2023-07-29T07:11:10;2.93;;;1.40;;
8895;SDS011;4484;48.928;10.066;2023-07-29T07:13:37;3.57;;;1.50;;
8895;SDS011;4484;48.928;10.066;2023-07-29T07:16:04;3.03;;;1.37;;
8895;SDS011;4484;48.928;10.066;2023-07-29T07:18:30;5.57;;;1.30;;
8895;SDS011;4484;48.928;10.066;2023-07-29T07:20:57;2.13;;;1.40;;
8895;SDS011;4484;48.928;10.066;2023-07-29T07:23:24;1.70;;;1.60;;
8895;SDS011;4484;48.928;10.066;2023-07-29T07:25:51;2.70;;;1.50;;
8895;SDS011;4484;48.928;10.066;2023-07-29T07:28:18;3.53;;;1.40;;
8895;SDS011;4484;48.928;10.066;2023-07-29T07:30:44;2.33;;;1.60;;
8895;SDS011;4484;48.928;10.066;2023-07-29T07:33:11;1.93;;;1.53;;
8895;SDS011;4484;48.928;10.066;2023-07-29T07:35:38;5.50;;;1.80;;
8895;SDS011;4484;48.928;10.066;2023-07-29T07:38:05;8.23;;;1.60;;
8895;SDS011;4484;48.928;10.066;2023-07-29T07:40:33;2.40;;;1.37;;
8895;SDS011;4484;48.928;10.066;2023-07-29T07:43:00;3.80;;;1.63;;
8895;SDS011;4484;48.928;10.066;2023-07-29T07:45:27;3.17;;;1.30;;
8895;SDS011;4484;48.928;10.066;2023-07-29T07:47:54;1.57;;;1.10;;
8895;SDS011;4484;48.928;10.066;2023-07-29T07:50:22;3.13;;;1.40;;
8895;SDS011;4484;48.928;10.066;2023-07-29T07:52:50;3.00;;;1.13;;
8895;SDS011;4484;48.928;10.066;2023-07-29T07:55:17;2.67;;;1.20;;
8895;SDS011;4484;48.928;10.066;2023-07-29T07:57:44;4.47;;;1.30;;
8895;SDS011;4484;48.928;10.066;2023-07-29T08:00:11;3.60;;;1.27;;
8895;SDS011;4484;48.928;10.066;2023-07-29T08:02:38;1.50;;;1.23;;
8895;SDS011;4484;48.928;10.066;2023-07-29T08:05:05;6.03;;;1.20;;
8895;SDS011;4484;48.928;10.066;2023-07-29T08:07:32;1.60;;;1.30;;
8895;SDS011;4484;48.928;10.066;2023-07-29T08:10:00;3.07;;;1.20;;
8895;SDS011;4484;48.928;10.066;2023-07-29T08:12:26;2.53;;;1.33;;
8895;SDS011;4484;48.928;10.066;2023-07-29T08:14:53;2.83;;;1.60;;
8895;SDS011;4484;48.928;10.066;2023-07-29T08:17:20;4.10;;;1.30;;
8895;SDS011;4484;48.928;10.066;2023-07-29T08:19:47;1.60;;;1.33;;
8895;SDS011;4484;48.928;10.066;2023-07-29T08:22:14;3.17;;;1.37;;
8895;SDS011;4484;48.928;10.066;2023-07-29T08:24:43;1.60;;;1.20;;
8895;SDS011;4484;48.928;10.066;2023-07-29T08:27:10;1.50;;;1.40;;
8895;SDS011;4484;48.928;10.066;2023-07-29T08:29:37;1.87;;;1.67;;
8895;SDS011;4484;48.928;10.066;2023-07-29T08:32:03;6.83;;;1.87;;
8895;SDS011;4484;48.928;10.066;2023-07-29T08:34:30;2.20;;;1.57;;
8895;SDS011;4484;48.928;10.066;2023-07-29T08:36:57;1.60;;;1.40;;
8895;SDS011;4484;48.928;10.066;2023-07-29T08:39:24;1.57;;;1.30;;
8895;SDS011;4484;48.928;10.066;2023-07-29T08:41:55;1.57;;;1.20;;
8895;SDS011;4484;48.928;10.066;2023-07-29T08:44:35;3.63;;;1.10;;
8895;SDS011;4484;48.928;10.066;2023-07-29T08:47:06;1.50;;;1.30;;
8895;SDS011;4484;48.928;10.066;2023-07-29T08:49:33;1.67;;;1.33;;
8895;SDS011;4484;48.928;10.066;2023-07-29T08:52:01;1.23;;;0.90;;
8895;SDS011;4484;48.928;10.066;2023-07-29T08:54:30;1.60;;;1.00;;
8895;SDS011;4484;48.928;10.066;2023-07-29T08:56:57;2.17;;;0.80;;
8895;SDS011;4484;48.928;10.066;2023-07-29T08:59:25;1.57;;;0.90;;
8895;SDS011;4484;48.928;10.066;2023-07-29T09:01:53;1.53;;;0.80;;
8895;SDS011;4484;48.928;10.066;2023-07-29T09:04:23;1.33;;;0.93;;
8895;SDS011;4484;48.928;10.066;2023-07-29T09:06:51;1.53;;;0.87;;
8895;SDS011;4484;48.928;10.066;2023-07-29T09:09:20;1.30;;;0.90;;
8895;SDS011;4484;48.928;10.066;2023-07-29T09:11:47;1.10;;;1.00;;
8895;SDS011;4484;48.928;10.066;2023-07-29T09:14:14;0.80;;;0.77;;
8895;SDS011;4484;48.928;10.066;2023-07-29T09:16:41;2.20;;;0.90;;
8895;SDS011;4484;48.928;10.066;2023-07-29T09:19:08;1.17;;;1.07;;
8895;SDS011;4484;48.928;10.066;2023-07-29T09:21:38;1.10;;;0.93;;
8895;SDS011;4484;48.928;10.066;2023-07-29T09:24:06;2.30;;;1.00;;
8895;SDS011;4484;48.928;10.066;2023-07-29T09:26:34;1.67;;;1.00;;
8895;SDS011;4484;48.928;10.066;2023-07-29T09:29:02;1.17;;;1.00;;
8895;SDS011;4484;48.928;10.066;2023-07-29T09:31:29;1.27;;;1.17;;
8895;SDS011;4484;48.928;10.066;2023-07-29T09:33:57;1.10;;;0.90;;
8895;SDS011;4484;48.928;10.066;2023-07-29T09:36:25;1.20;;;1.10;;
8895;SDS011;4484;48.928;10.066;2023-07-29T09:38:56;0.93;;;0.82;;
8895;SDS011;4484;48.928;10.066;2023-07-29T09:41:24;0.88;;;0.88;;
8895;SDS011;4484;48.928;10.066;2023-07-29T09:43:55;1.92;;;1.13;;
8895;SDS011;4484;48.928;10.066;2023-07-29T09:46:36;3.17;;;1.00;;
8895;SDS011;4484;48.928;10.066;2023-07-29T09:49:05;1.17;;;1.08;;
8895;SDS011;4484;48.928;10.066;2023-07-29T09:51:39;2.33;;;1.20;;
8895;SDS011;4484;48.928;10.066;2023-07-29T09:54:07;1.30;;;1.20;;
8895;SDS011;4484;48.928;10.066;2023-07-29T09:56:34;1.73;;;0.93;;
8895;SDS011;4484;48.928;10.066;2023-07-29T09:59:07;1.30;;;1.10;;
8895;SDS011;4484;48.928;10.066;2023-07-29T10:01:34;1.15;;;1.05;;
8895;SDS011;4484;48.928;10.066;2023-07-29T10:04:03;1.02;;;0.80;;
8895;SDS011;4484;48.928;10.066;2023-07-29T10:06:32;1.98;;;1.00;;
8895;SDS011;4484;48.928;10.066;2023-07-29T10:09:02;1.85;;;0.90;;
8895;SDS011;4484;48.928;10.066;2023-07-29T10:11:29;1.13;;;1.02;;
8895;SDS011;4484;48.928;10.066;2023-07-29T10:13:57;1.25;;;1.08;;
8895;SDS011;4484;48.928;10.066;2023-07-29T10:16:36;1.13;;;1.02;;
8895;SDS011;4484;48.928;10.066;2023-07-29T10:19:04;1.27;;;1.15;;
8895;SDS011;4484;48.928;10.066;2023-07-29T10:21:32;0.88;;;0.88;;
8895;SDS011;4484;48.928;10.066;2023-07-29T10:24:02;1.05;;;0.95;;
8895;SDS011;4484;48.928;10.066;2023-07-29T10:26:36;1.38;;;1.02;;
8895;SDS011;4484;48.928;10.066;2023-07-29T10:29:09;1.05;;;0.85;;
8895;SDS011;4484;48.928;10.066;2023-07-29T10:31:40;0.80;;;0.80;;
8895;SDS011;4484;48.928;10.066;2023-07-29T10:34:09;1.10;;;1.00;;
8895;SDS011;4484;48.928;10.066;2023-07-29T10:36:37;2.53;;;1.02;;
8895;SDS011;4484;48.928;10.066;2023-07-29T10:39:06;1.10;;;1.00;;
8895;SDS011;4484;48.928;10.066;2023-07-29T10:47:24;3.47;;;1.33;;
8895;SDS011;4484;48.928;10.066;2023-07-29T10:49:53;1.60;;;0.90;;
8895;SDS011;4484;48.928;10.066;2023-07-29T10:55:01;1.20;;;1.08;;
8895;SDS011;4484;48.928;10.066;2023-07-29T10:57:39;1.98;;;1.30;;
8895;SDS011;4484;48.928;10.066;2023-07-29T11:00:09;2.88;;;1.10;;
8895;SDS011;4484;48.928;10.066;2023-07-29T11:02:37;1.20;;;1.10;;
8895;SDS011;4484;48.928;10.066;2023-07-29T11:05:05;7.35;;;1.20;;
8895;SDS011;4484;48.928;10.066;2023-07-29T11:07:46;5.00;;;0.65;;
8895;SDS011;4484;48.928;10.066;2023-07-29T11:10:14;1.25;;;0.80;;
8895;SDS011;4484;48.928;10.066;2023-07-29T11:15:16;3.63;;;0.50;;
8895;SDS011;4484;48.928;10.066;2023-07-29T11:17:54;0.57;;;0.50;;
8895;SDS011;4484;48.928;10.066;2023-07-29T11:20:24;2.35;;;0.57;;
8895;SDS011;4484;48.928;10.066;2023-07-29T11:23:01;1.67;;;0.52;;
8895;SDS011;4484;48.928;10.066;2023-07-29T11:25:30;1.60;;;0.60;;
8895;SDS011;4484;48.928;10.066;2023-07-29T11:27:58;2.30;;;0.70;;
8895;SDS011;4484;48.928;10.066;2023-07-29T11:30:29;0.68;;;0.50;;
8895;SDS011;4484;48.928;10.066;2023-07-29T11:32:57;1.88;;;0.65;;
8895;SDS011;4484;48.928;10.066;2023-07-29T11:35:25;3.53;;;0.60;;
8895;SDS011;4484;48.928;10.066;2023-07-29T11:37:53;1.85;;;0.70;;
8895;SDS011;4484;48.928;10.066;2023-07-29T11:40:23;0.80;;;0.80;;
8895;SDS011;4484;48.928;10.066;2023-07-29T11:42:51;1.10;;;0.90;;
8895;SDS011;4484;48.928;10.066;2023-07-29T11:45:19;1.67;;;0.60;;
8895;SDS011;4484;48.928;10.066;2023-07-29T11:47:51;1.52;;;0.70;;
8895;SDS011;4484;48.928;10.066;2023-07-29T11:50:18;1.33;;;0.68;;
8895;SDS011;4484;48.928;10.066;2023-07-29T11:52:45;1.70;;;0.70;;
8895;SDS011;4484;48.928;10.066;2023-07-29T11:55:13;1.75;;;0.85;;
8895;SDS011;4484;48.928;10.066;2023-07-29T11:57:41;1.25;;;0.70;;
8895;SDS011;4484;48.928;10.066;2023-07-29T12:00:09;1.52;;;0.77;;
8895;SDS011;4484;48.928;10.066;2023-07-29T12:02:39;0.68;;;0.68;;
8895;SDS011;4484;48.928;10.066;2023-07-29T12:05:08;0.80;;;0.80;;
8895;SDS011;4484;48.928;10.066;2023-07-29T12:07:38;1.13;;;0.90;;
8895;SDS011;4484;48.928;10.066;2023-07-29T12:10:06;0.70;;;0.70;;
8895;SDS011;4484;48.928;10.066;2023-07-29T12:12:33;0.88;;;0.63;;
8895;SDS011;4484;48.928;10.066;2023-07-29T12:15:10;3.42;;;1.05;;
8895;SDS011;4484;48.928;10.066;2023-07-29T12:17:40;2.17;;;1.00;;
8895;SDS011;4484;48.928;10.066;2023-07-29T12:20:09;0.98;;;0.68;;
8895;SDS011;4484;48.928;10.066;2023-07-29T12:22:36;1.55;;;0.80;;
8895;SDS011;4484;48.928;10.066;2023-07-29T12:25:04;1.63;;;0.82;;
8895;SDS011;4484;48.928;10.066;2023-07-29T12:27:31;1.33;;;0.73;;
8895;SDS011;4484;48.928;10.066;2023-07-29T12:29:58;1.27;;;0.90;;
8895;SDS011;4484;48.928;10.066;2023-07-29T12:32:29;2.53;;;0.80;;
8895;SDS011;4484;48.928;10.066;2023-07-29T12:34:56;0.73;;;0.73;;
8895;SDS011;4484;48.928;10.066;2023-07-29T12:37:30;1.20;;;1.00;;
8895;SDS011;4484;48.928;10.066;2023-07-29T12:40:00;1.60;;;1.08;;
8895;SDS011;4484;48.928;10.066;2023-07-29T12:42:28;3.47;;;1.13;;
8895;SDS011;4484;48.928;10.066;2023-07-29T12:44:55;1.00;;;0.85;;
8895;SDS011;4484;48.928;10.066;2023-07-29T12:47:22;0.90;;;0.80;;
8895;SDS011;4484;48.928;10.066;2023-07-29T12:49:49;2.30;;;1.00;;
8895;SDS011;4484;48.928;10.066;2023-07-29T12:52:15;0.80;;;0.80;;
8895;SDS011;4484;48.928;10.066;2023-07-29T12:54:42;0.70;;;0.70;;
8895;SDS011;4484;48.928;10.066;2023-07-29T12:57:10;0.77;;;0.70;;
8895;SDS011;4484;48.928;10.066;2023-07-29T12:59:37;0.85;;;0.85;;
8895;SDS011;4484;48.928;10.066;2023-07-29T13:02:04;1.08;;;0.80;;
8895;SDS011;4484;48.928;10.066;2023-07-29T13:04:33;2.17;;;1.00;;
8895;SDS011;4484;48.928;10.066;2023-07-29T13:07:00;0.93;;;0.90;;
8895;SDS011;4484;48.928;10.066;2023-07-29T13:09:27;0.70;;;0.70;;
8895;SDS011;4484;48.928;10.066;2023-07-29T13:11:54;0.80;;;0.80;;
8895;SDS011;4484;48.928;10.066;2023-07-29T13:14:21;0.77;;;0.77;;
8895;SDS011;4484;48.928;10.066;2023-07-29T13:16:48;1.38;;;0.98;;
8895;SDS011;4484;48.928;10.066;2023-07-29T13:19:14;2.05;;;0.80;;
8895;SDS011;4484;48.928;10.066;2023-07-29T13:21:41;0.75;;;0.75;;
8895;SDS011;4484;48.928;10.066;2023-07-29T13:24:08;0.65;;;0.63;;
8895;SDS011;4484;48.928;10.066;2023-07-29T13:26:35;1.30;;;0.90;;
8895;SDS011;4484;48.928;10.066;2023-07-29T13:29:02;0.98;;;0.88;;
8895;SDS011;4484;48.928;10.066;2023-07-29T13:31:34;1.10;;;1.00;;
8895;SDS011;4484;48.928;10.066;2023-07-29T13:34:00;1.45;;;1.00;;
8895;SDS011;4484;48.928;10.066;2023-07-29T13:36:27;0.90;;;0.90;;
8895;SDS011;4484;48.928;10.066;2023-07-29T13:38:54;0.80;;;0.80;;
8895;SDS011;4484;48.928;10.066;2023-07-29T13:41:21;0.85;;;0.85;;
8895;SDS011;4484;48.928;10.066;2023-07-29T13:43:48;1.80;;;1.10;;
8895;SDS011;4484;48.928;10.066;2023-07-29T13:46:14;2.50;;;1.00;;
8895;SDS011;4484;48.928;10.066;2023-07-29T13:48:41;1.38;;;1.10;;
8895;SDS011;4484;48.928;10.066;2023-07-29T13:51:08;1.13;;;0.88;;
8895;SDS011;4484;48.928;10.066;2023-07-29T13:53:35;1.05;;;0.95;;
8895;SDS011;4484;48.928;10.066;2023-07-29T13:56:02;1.20;;;1.10;;
8895;SDS011;4484;48.928;10.066;2023-07-29T13:58:28;1.00;;;1.00;;
8895;SDS011;4484;48.928;10.066;2023-07-29T14:00:55;1.40;;;0.90;;
8895;SDS011;4484;48.928;10.066;2023-07-29T14:03:25;1.35;;;0.90;;
8895;SDS011;4484;48.928;10.066;2023-07-29T14:05:52;3.33;;;1.05;;
8895;SDS011;4484;48.928;10.066;2023-07-29T14:08:19;1.35;;;0.77;;
8895;SDS011;4484;48.928;10.066;2023-07-29T14:10:46;4.40;;;1.10;;
8895;SDS011;4484;48.928;10.066;2023-07-29T14:13:12;1.10;;;1.00;;
8895;SDS011;4484;48.928;10.066;2023-07-29T14:15:39;1.48;;;1.20;;
8895;SDS011;4484;48.928;10.066;2023-07-29T14:18:06;1.10;;;1.00;;
8895;SDS011;4484;48.928;10.066;2023-07-29T14:20:33;1.30;;;1.20;;
8895;SDS011;4484;48.928;10.066;2023-07-29T14:23:00;1.10;;;1.00;;
8895;SDS011;4484;48.928;10.066;2023-07-29T14:25:27;2.45;;;1.13;;
8895;SDS011;4484;48.928;10.066;2023-07-29T14:27:54;0.80;;;0.80;;
8895;SDS011;4484;48.928;10.066;2023-07-29T14:30:21;1.23;;;0.80;;
8895;SDS011;4484;48.928;10.066;2023-07-29T14:32:48;1.20;;;1.10;;
8895;SDS011;4484;48.928;10.066;2023-07-29T14:35:15;1.40;;;0.95;;
8895;SDS011;4484;48.928;10.066;2023-07-29T14:37:42;2.22;;;1.05;;
8895;SDS011;4484;48.928;10.066;2023-07-29T14:40:08;1.20;;;1.10;;
8895;SDS011;4484;48.928;10.066;2023-07-29T14:42:35;1.20;;;1.10;;
8895;SDS011;4484;48.928;10.066;2023-07-29T14:45:02;1.35;;;1.25;;
8895;SDS011;4484;48.928;10.066;2023-07-29T14:47:29;1.23;;;1.13;;
8895;SDS011;4484;48.928;10.066;2023-07-29T14:50:01;2.38;;;1.08;;
8895;SDS011;4484;48.928;10.066;2023-07-29T14:52:27;2.40;;;1.25;;
8895;SDS011;4484;48.928;10.066;2023-07-29T14:54:54;2.13;;;1.20;;
8895;SDS011;4484;48.928;10.066;2023-07-29T14:57:21;2.60;;;1.08;;
8895;SDS011;4484;48.928;10.066;2023-07-29T14:59:48;1.30;;;1.20;;
8895;SDS011;4484;48.928;10.066;2023-07-29T15:02:15;3.75;;;1.10;;
8895;SDS011;4484;48.928;10.066;2023-07-29T15:04:42;2.28;;;1.20;;
8895;SDS011;4484;48.928;10.066;2023-07-29T15:07:08;1.27;;;1.17;;
8895;SDS011;4484;48.928;10.066;2023-07-29T15:09:35;1.08;;;0.98;;
8895;SDS011;4484;48.928;10.066;2023-07-29T15:12:02;1.15;;;1.08;;
8895;SDS011;4484;48.928;10.066;2023-07-29T15:14:30;1.10;;;1.00;;
8895;SDS011;4484;48.928;10.066;2023-07-29T15:16:56;1.58;;;1.20;;
8895;SDS011;4484;48.928;10.066;2023-07-29T15:19:23;1.38;;;1.10;;
8895;SDS011;4484;48.928;10.066;2023-07-29T15:21:51;1.38;;;1.20;;
8895;SDS011;4484;48.928;10.066;2023-07-29T15:24:18;3.08;;;1.27;;